Time;durP1;ratioP1;P1;durP2;ratioP2;P2;SDS_P1;SDS_P2;PMS_P1;PMS_P2;Temp;Humidity;BMP_temperature;BMP_pressure;BME280_temperature;BME280_humidity;BME280_pressure;Samples;Min_cycle;Max_cycle;Signal;HPM_P1;HPM_P2
2022/01/14 00:00:09;;;;;;;2.57;0.90;;;11.00;99.90;;;;;;5074231;28;20242;-96
2022/01/14 00:02:43;;;;;;;3.37;0.90;;;11.00;99.90;;;;;;5071738;28;20247;-94
2022/01/14 00:05:14;;;;;;;2.47;0.80;;;10.90;99.90;;;;;;5071086;28;20259;-93
2022/01/14 00:07:46;;;;;;;1.43;1.20;;;10.80;99.90;;;;;;5071437;28;20238;-93
2022/01/14 00:10:19;;;;;;;1.47;1.00;;;10.70;99.90;;;;;;5069289;28;20223;-92
2022/01/14 00:12:54;;;;;;;3.30;1.17;;;10.60;99.90;;;;;;5070112;28;20727;-94
2022/01/14 00:15:26;;;;;;;1.70;1.33;;;10.50;99.90;;;;;;5067584;28;20223;-95
2022/01/14 00:18:00;;;;;;;1.70;1.60;;;10.40;99.90;;;;;;5068811;28;20268;-94
2022/01/14 00:20:33;;;;;;;2.73;1.70;;;10.40;99.90;;;;;;5067829;28;20204;-94
2022/01/14 00:23:05;;;;;;;2.30;2.10;;;10.30;99.90;;;;;;5049024;28;20239;-89
2022/01/14 00:34:04;;;;;;;2.33;1.80;;;9.90;99.90;;;;;;5050856;28;20252;-94
2022/01/14 00:36:37;;;;;;;2.00;1.80;;;9.90;99.90;;;;;;5636952;23;20293;-95
2022/01/14 00:39:09;;;;;;;2.37;1.97;;;9.80;99.90;;;;;;5271677;22;20279;-95
2022/01/14 00:41:41;;;;;;;3.20;1.80;;;9.80;99.90;;;;;;5071574;28;20208;-94
2022/01/14 00:44:15;;;;;;;1.63;1.53;;;9.70;99.90;;;;;;5070394;28;20232;-94
2022/01/14 00:46:48;;;;;;;3.23;2.20;;;9.80;99.90;;;;;;5063240;28;20298;-95
2022/01/14 00:49:22;;;;;;;4.43;2.23;;;9.80;99.90;;;;;;5067850;28;20216;-95
2022/01/14 00:51:56;;;;;;;3.23;1.90;;;9.80;99.90;;;;;;5068959;28;20211;-95
2022/01/14 00:54:27;;;;;;;5.43;2.20;;;9.90;99.90;;;;;;5042195;28;20302;-94
2022/01/14 00:57:27;;;;;;;3.53;2.00;;;10.00;99.90;;;;;;5065052;28;20222;-94
2022/01/14 00:59:57;;;;;;;3.83;1.97;;;10.00;99.90;;;;;;5070325;28;20196;-95
2022/01/14 01:05:06;;;;;;;4.37;1.77;;;10.00;99.90;;;;;;6022067;22;20284;-95
2022/01/14 01:07:40;;;;;;;2.23;1.77;;;10.10;99.90;;;;;;5230141;22;20266;-94
2022/01/14 01:10:13;;;;;;;3.07;1.90;;;10.10;99.90;;;;;;5073712;28;20223;-95
2022/01/14 01:12:50;;;;;;;2.23;1.57;;;10.10;99.90;;;;;;5074766;28;20261;-95
2022/01/14 01:20:48;;;;;;;2.70;1.67;;;10.10;99.90;;;;;;5526867;22;20246;-95
2022/01/14 01:23:20;;;;;;;2.73;1.30;;;10.10;99.90;;;;;;5080267;28;20298;-95
2022/01/14 01:25:58;;;;;;;2.23;1.10;;;10.10;99.90;;;;;;5078514;28;20218;-96
2022/01/14 01:31:06;;;;;;;1.10;1.00;;;10.10;99.90;;;;;;5945964;22;20231;-94
2022/01/14 01:33:37;;;;;;;1.87;1.30;;;10.10;99.90;;;;;;5075796;28;20241;-94
2022/01/14 01:36:11;;;;;;;1.63;1.20;;;10.00;99.90;;;;;;5074973;28;20234;-95
2022/01/14 01:38:42;;;;;;;3.40;1.30;;;9.90;99.90;;;;;;5065201;28;20208;-95
2022/01/14 01:41:17;;;;;;;3.97;1.13;;;9.80;99.90;;;;;;5063402;28;20659;-94
2022/01/14 01:43:51;;;;;;;1.47;0.90;;;9.80;99.90;;;;;;5064831;28;20224;-95
2022/01/14 01:46:23;;;;;;;2.10;1.40;;;9.70;99.90;;;;;;5059594;28;20214;-96
2022/01/14 01:48:55;;;;;;;3.47;1.40;;;9.60;99.90;;;;;;5067130;28;20204;-94
2022/01/14 01:54:14;;;;;;;2.67;1.30;;;9.60;99.90;;;;;;5246512;22;20254;-94
2022/01/14 01:56:46;;;;;;;5.47;1.80;;;9.60;99.90;;;;;;5078745;28;20195;-95
2022/01/14 01:59:16;;;;;;;3.47;1.63;;;9.50;99.90;;;;;;5079177;28;20197;-93
2022/01/14 02:01:48;;;;;;;4.97;1.77;;;9.40;99.90;;;;;;5078839;28;20205;-94
2022/01/14 02:04:19;;;;;;;4.50;2.17;;;9.30;99.90;;;;;;5077736;28;20296;-95
2022/01/14 02:15:06;;;;;;;2.90;1.27;;;9.20;99.90;;;;;;5076213;28;20230;-95
2022/01/14 02:17:52;;;;;;;4.03;1.03;;;9.10;99.90;;;;;;5077819;28;20200;-95
2022/01/14 02:23:16;;;;;;;2.17;1.90;;;8.90;99.90;;;;;;5544669;22;20242;-96
2022/01/14 02:25:48;;;;;;;1.97;1.67;;;8.90;99.90;;;;;;5077636;28;20208;-94
2022/01/14 02:28:20;;;;;;;4.23;1.70;;;8.90;99.90;;;;;;5073929;28;20201;-94
2022/01/14 02:30:52;;;;;;;1.90;1.60;;;8.90;99.90;;;;;;5073488;28;20197;-95
2022/01/14 02:33:24;;;;;;;2.10;1.40;;;8.90;99.90;;;;;;5077181;28;20227;-94
2022/01/14 02:35:58;;;;;;;1.57;1.37;;;8.80;99.90;;;;;;5073565;28;20287;-95
2022/01/14 02:41:05;;;;;;;2.13;1.60;;;8.80;99.90;;;;;;5286208;22;20247;-94
2022/01/14 02:43:37;;;;;;;2.03;1.33;;;8.70;99.90;;;;;;5069778;28;20204;-94
2022/01/14 02:46:09;;;;;;;3.83;2.80;;;8.70;99.90;;;;;;5175668;22;20250;-94
2022/01/14 02:48:40;;;;;;;3.97;3.20;;;8.60;99.90;;;;;;5071334;28;20208;-94
2022/01/14 02:51:18;;;;;;;2.10;1.90;;;8.50;99.90;;;;;;5070728;28;20242;-94
2022/01/14 02:53:59;;;;;;;2.27;1.47;;;8.50;99.90;;;;;;5071975;28;20321;-94
2022/01/14 02:56:32;;;;;;;1.90;1.57;;;8.50;99.90;;;;;;5070106;28;20232;-95
2022/01/14 02:59:04;;;;;;;1.93;1.50;;;8.40;99.90;;;;;;5070056;28;20208;-94
2022/01/14 03:01:37;;;;;;;2.13;1.80;;;8.30;99.90;;;;;;5071853;28;20223;-94
2022/01/14 03:04:12;;;;;;;5.67;3.70;;;8.30;99.90;;;;;;5073126;28;20238;-93
2022/01/14 03:06:46;;;;;;;5.50;4.13;;;8.20;99.90;;;;;;5069712;28;20219;-95
2022/01/14 03:09:17;;;;;;;6.63;4.70;;;8.20;99.90;;;;;;5071455;28;20207;-94
2022/01/14 03:11:52;;;;;;;4.53;3.97;;;8.20;99.90;;;;;;5071740;28;20212;-94
2022/01/14 03:14:24;;;;;;;4.17;3.17;;;8.10;99.90;;;;;;5072353;28;20202;-94
2022/01/14 03:17:02;;;;;;;3.00;2.13;;;8.10;99.90;;;;;;5072088;28;20341;-94
2022/01/14 03:19:34;;;;;;;2.50;2.20;;;8.10;99.90;;;;;;5073419;28;20228;-94
2022/01/14 03:22:18;;;;;;;4.03;3.00;;;8.00;99.90;;;;;;5056194;28;20212;-94
2022/01/14 03:27:38;;;;;;;4.23;3.20;;;7.90;99.90;;;;;;5053173;28;20189;-94
2022/01/14 03:30:12;;;;;;;4.87;3.17;;;7.80;99.90;;;;;;5048089;28;20201;-94
2022/01/14 03:32:44;;;;;;;4.60;3.70;;;7.80;99.90;;;;;;5051385;28;20193;-94
2022/01/14 03:35:18;;;;;;;4.83;3.57;;;7.80;99.90;;;;;;5055481;28;20216;-94
2022/01/14 03:37:52;;;;;;;8.03;4.93;;;7.70;99.90;;;;;;5055878;28;20208;-94
2022/01/14 03:40:23;;;;;;;11.27;6.70;;;7.70;99.90;;;;;;5053840;28;20192;-93
2022/01/14 03:42:53;;;;;;;12.90;7.63;;;7.70;99.90;;;;;;5064464;28;20211;-93
2022/01/14 03:45:25;;;;;;;15.20;8.67;;;7.60;99.90;;;;;;5067218;28;20251;-93
2022/01/14 03:47:55;;;;;;;13.93;8.33;;;7.50;99.90;;;;;;5059165;28;20333;-93
2022/01/14 03:50:27;;;;;;;9.50;6.10;;;7.50;99.90;;;;;;5074307;28;20207;-94
2022/01/14 03:53:01;;;;;;;9.30;4.63;;;7.50;99.90;;;;;;5071922;28;20208;-93
2022/01/14 03:55:40;;;;;;;5.40;3.63;;;7.50;99.90;;;;;;5069803;28;20278;-93
2022/01/14 03:58:32;;;;;;;4.20;2.77;;;7.40;99.90;;;;;;5065368;28;20291;-94
2022/01/14 04:01:03;;;;;;;4.23;1.93;;;7.40;99.90;;;;;;5070085;28;20208;-94
2022/01/14 04:03:34;;;;;;;2.40;1.70;;;7.30;99.90;;;;;;5067222;28;20216;-93
2022/01/14 04:06:07;;;;;;;2.67;1.70;;;7.30;99.90;;;;;;5071763;28;20235;-94
2022/01/14 04:08:40;;;;;;;2.30;1.77;;;7.30;99.90;;;;;;5068378;28;20239;-93
2022/01/14 04:11:13;;;;;;;3.40;1.80;;;7.20;99.90;;;;;;5071236;28;20258;-93
2022/01/14 04:13:49;;;;;;;2.83;1.40;;;7.10;99.90;;;;;;5070088;28;20204;-94
2022/01/14 04:16:23;;;;;;;2.27;1.80;;;7.10;99.90;;;;;;5070520;28;20191;-94
2022/01/14 04:18:55;;;;;;;2.40;2.07;;;7.00;99.90;;;;;;5070028;28;20235;-94
2022/01/14 04:21:29;;;;;;;3.10;1.90;;;7.00;99.90;;;;;;5067217;28;20280;-94
2022/01/14 04:24:04;;;;;;;3.33;1.83;;;7.00;99.90;;;;;;5064201;28;20211;-93
2022/01/14 04:26:37;;;;;;;3.77;2.23;;;6.90;99.90;;;;;;5179466;22;20276;-94
2022/01/14 04:29:09;;;;;;;4.20;2.80;;;6.90;99.90;;;;;;5032279;28;20201;-94
2022/01/14 04:31:40;;;;;;;4.10;2.73;;;7.00;99.90;;;;;;5024791;28;20276;-94
2022/01/14 04:34:11;;;;;;;6.67;3.07;;;7.00;99.90;;;;;;5026355;28;20269;-95
2022/01/14 04:36:43;;;;;;;4.20;3.80;;;7.00;99.90;;;;;;5024902;28;20217;-94
2022/01/14 04:39:16;;;;;;;5.30;3.67;;;7.00;99.90;;;;;;5027781;28;20214;-94
2022/01/14 04:41:48;;;;;;;6.73;3.97;;;7.00;99.90;;;;;;5031325;28;20214;-93
2022/01/14 04:44:19;;;;;;;3.90;3.23;;;7.00;99.90;;;;;;5027752;28;20244;-95
2022/01/14 04:47:13;;;;;;;4.83;3.47;;;7.00;99.90;;;;;;5030459;28;20232;-95
2022/01/14 04:49:46;;;;;;;4.00;2.97;;;7.00;99.90;;;;;;5031321;28;20284;-93
2022/01/14 04:52:17;;;;;;;3.50;3.20;;;7.10;99.90;;;;;;5032637;28;20222;-94
2022/01/14 04:54:50;;;;;;;3.37;2.70;;;7.10;99.90;;;;;;5035269;28;20206;-94
2022/01/14 04:57:22;;;;;;;3.00;2.57;;;7.10;99.90;;;;;;5034897;28;20217;-94
2022/01/14 04:59:54;;;;;;;4.03;2.70;;;7.00;99.90;;;;;;5013609;28;20232;-93
2022/01/14 05:02:26;;;;;;;3.80;2.57;;;7.00;99.90;;;;;;5027837;28;20227;-94
2022/01/14 05:04:58;;;;;;;2.97;2.40;;;7.10;99.90;;;;;;5032296;28;20276;-94
2022/01/14 05:07:29;;;;;;;2.27;2.00;;;7.00;99.90;;;;;;5345782;22;20511;-94
2022/01/14 05:10:18;;;;;;;2.37;2.17;;;7.00;99.90;;;;;;5071124;28;20218;-93
2022/01/14 05:15:25;;;;;;;2.57;2.20;;;7.00;99.90;;;;;;5096938;28;20219;-94
2022/01/14 05:17:59;;;;;;;3.37;2.20;;;7.00;99.90;;;;;;5092186;28;20221;-93
2022/01/14 05:20:30;;;;;;;2.77;2.40;;;6.90;99.90;;;;;;5084721;28;20242;-95
2022/01/14 05:23:01;;;;;;;2.37;2.17;;;6.90;99.90;;;;;;5084304;28;20218;-95
2022/01/14 05:25:34;;;;;;;3.53;1.90;;;6.90;99.90;;;;;;5082928;28;20263;-95
2022/01/14 05:28:06;;;;;;;2.83;1.60;;;6.80;99.90;;;;;;5081286;28;20228;-94
2022/01/14 05:30:37;;;;;;;2.30;1.93;;;6.80;99.90;;;;;;5081499;28;20207;-93
2022/01/14 05:33:08;;;;;;;1.83;1.70;;;6.80;99.90;;;;;;5081510;28;20214;-93
2022/01/14 05:35:38;;;;;;;2.60;1.77;;;6.70;99.90;;;;;;5082710;28;20261;-94
2022/01/14 05:38:10;;;;;;;2.63;1.63;;;6.70;99.90;;;;;;5080625;28;20229;-95
2022/01/14 05:40:43;;;;;;;2.20;1.80;;;6.70;99.90;;;;;;5082015;28;20211;-94
2022/01/14 05:43:15;;;;;;;2.93;1.93;;;6.60;99.90;;;;;;5081466;28;20236;-94
2022/01/14 05:45:46;;;;;;;5.53;1.80;;;6.60;99.90;;;;;;5081835;28;20231;-94
2022/01/14 05:48:17;;;;;;;4.93;2.20;;;6.60;99.90;;;;;;5079131;28;20243;-94
2022/01/14 05:50:49;;;;;;;3.13;1.93;;;6.60;99.90;;;;;;5086705;28;20211;-95
2022/01/14 05:53:21;;;;;;;4.07;2.10;;;6.50;99.90;;;;;;5097631;28;20188;-94
2022/01/14 05:55:54;;;;;;;1.70;1.60;;;6.50;99.90;;;;;;5097379;28;20258;-95
2022/01/14 05:58:26;;;;;;;4.07;3.33;;;6.50;99.90;;;;;;5090981;28;20230;-93
2022/01/14 06:00:57;;;;;;;2.20;1.93;;;6.40;99.90;;;;;;5091393;28;20261;-94
2022/01/14 06:03:28;;;;;;;2.33;2.13;;;6.30;99.90;;;;;;5083918;28;20211;-94
2022/01/14 06:05:59;;;;;;;3.07;2.60;;;6.30;99.90;;;;;;5079326;28;20238;-94
2022/01/14 06:08:30;;;;;;;6.20;2.40;;;6.30;99.90;;;;;;5070143;28;20216;-94
2022/01/14 06:11:04;;;;;;;4.20;2.40;;;6.30;99.90;;;;;;5059066;28;20208;-93
2022/01/14 06:13:35;;;;;;;2.53;2.20;;;6.30;99.90;;;;;;5059123;28;20223;-94
2022/01/14 06:16:06;;;;;;;2.93;2.47;;;6.20;99.90;;;;;;5059923;28;20230;-94
2022/01/14 06:18:38;;;;;;;3.07;2.50;;;6.20;99.90;;;;;;5062391;28;20212;-94
2022/01/14 06:21:09;;;;;;;13.00;3.23;;;6.20;99.90;;;;;;5058446;28;20242;-93
2022/01/14 06:23:40;;;;;;;43.87;4.43;;;6.20;99.90;;;;;;5060412;28;20260;-93
2022/01/14 06:26:28;;;;;;;5.10;4.60;;;6.20;99.90;;;;;;5059471;28;20236;-94
2022/01/14 06:28:59;;;;;;;4.77;4.27;;;6.10;99.90;;;;;;5062214;28;20268;-94
2022/01/14 06:31:30;;;;;;;4.87;4.03;;;6.10;99.90;;;;;;5059035;28;20255;-94
2022/01/14 06:34:01;;;;;;;4.90;3.23;;;6.00;99.90;;;;;;5058905;28;20205;-93
2022/01/14 06:36:32;;;;;;;4.13;2.80;;;6.00;99.90;;;;;;5063529;28;20235;-94
2022/01/14 06:39:04;;;;;;;4.80;3.90;;;5.90;99.90;;;;;;5085495;28;20207;-94
2022/01/14 06:41:37;;;;;;;4.73;3.60;;;5.90;99.90;;;;;;5083943;28;20225;-93
2022/01/14 06:44:08;;;;;;;3.73;3.33;;;5.90;99.90;;;;;;5077640;28;20234;-93
2022/01/14 06:46:39;;;;;;;3.30;2.70;;;5.90;99.90;;;;;;5076644;28;20266;-94
2022/01/14 06:49:10;;;;;;;2.93;2.63;;;5.90;99.90;;;;;;5077259;28;20243;-94
2022/01/14 06:51:40;;;;;;;2.97;2.40;;;6.00;99.90;;;;;;5078364;28;20250;-95
2022/01/14 06:54:11;;;;;;;3.50;2.63;;;5.90;99.90;;;;;;5079726;28;20669;-93
2022/01/14 06:56:45;;;;;;;2.17;1.97;;;5.90;99.90;;;;;;5076670;28;20199;-94
2022/01/14 06:59:16;;;;;;;2.33;2.13;;;5.90;99.90;;;;;;5076255;28;20317;-94
2022/01/14 07:01:47;;;;;;;2.67;1.80;;;5.90;99.90;;;;;;5076830;28;20337;-94
2022/01/14 07:04:20;;;;;;;2.03;1.83;;;5.90;99.90;;;;;;5076128;28;20213;-94
2022/01/14 07:06:51;;;;;;;2.10;1.90;;;5.90;99.90;;;;;;5084144;28;20571;-93
2022/01/14 07:09:23;;;;;;;2.00;1.80;;;5.80;99.90;;;;;;5083143;28;20255;-94
2022/01/14 07:11:58;;;;;;;2.93;2.37;;;5.80;99.90;;;;;;5076844;28;20310;-93
2022/01/14 07:14:29;;;;;;;7.10;2.70;;;5.80;99.90;;;;;;5082755;28;20215;-93
2022/01/14 07:17:00;;;;;;;3.00;1.80;;;5.80;99.90;;;;;;5075281;28;20315;-93
2022/01/14 07:19:34;;;;;;;2.57;1.50;;;5.80;99.90;;;;;;5081893;28;20269;-94
2022/01/14 07:22:07;;;;;;;2.90;1.50;;;5.80;99.90;;;;;;5086199;28;20214;-94
2022/01/14 07:24:38;;;;;;;1.37;1.27;;;5.80;99.90;;;;;;5095299;28;20226;-92
2022/01/14 07:27:14;;;;;;;2.20;1.60;;;5.70;99.90;;;;;;5151136;22;20243;-94
2022/01/14 07:29:46;;;;;;;1.83;1.50;;;5.70;99.90;;;;;;5064699;28;20207;-94
2022/01/14 07:32:16;;;;;;;2.37;2.00;;;5.70;99.90;;;;;;5061782;28;20235;-93
2022/01/14 07:34:48;;;;;;;1.60;1.50;;;5.60;99.90;;;;;;5056702;28;20239;-94
2022/01/14 07:37:20;;;;;;;2.20;2.00;;;5.60;99.90;;;;;;5035384;28;20201;-94
2022/01/14 07:39:52;;;;;;;2.90;1.80;;;5.60;99.90;;;;;;4702688;28;10000444;-95
2022/01/14 07:42:26;;;;;;;2.40;1.90;;;5.60;99.90;;;;;;5065879;28;20212;-94
2022/01/14 07:44:58;;;;;;;2.20;1.97;;;5.50;99.90;;;;;;5065599;28;20210;-92
2022/01/14 07:47:30;;;;;;;2.20;2.00;;;5.50;99.90;;;;;;5065043;28;20366;-93
2022/01/14 07:50:02;;;;;;;3.23;1.80;;;5.50;99.90;;;;;;5059275;28;20212;-94
2022/01/14 07:52:33;;;;;;;4.27;1.70;;;5.40;99.90;;;;;;5058506;28;20239;-94
2022/01/14 07:55:05;;;;;;;4.90;2.17;;;5.40;99.90;;;;;;5060878;28;20228;-92
2022/01/14 07:57:37;;;;;;;2.73;2.23;;;5.40;99.90;;;;;;5058108;28;20231;-93
2022/01/14 08:00:10;;;;;;;2.73;2.40;;;5.30;99.90;;;;;;5054391;28;20238;-93
2022/01/14 08:02:41;;;;;;;2.73;2.47;;;5.30;99.90;;;;;;5037390;28;20228;-93
2022/01/14 08:05:14;;;;;;;3.37;2.40;;;5.30;99.90;;;;;;5041293;28;20248;-94
2022/01/14 08:07:47;;;;;;;4.10;2.53;;;5.30;99.90;;;;;;5041283;28;20651;-92
2022/01/14 08:10:18;;;;;;;2.60;2.33;;;5.40;99.90;;;;;;5076810;28;20216;-94
2022/01/14 08:12:52;;;;;;;2.07;1.87;;;5.40;99.90;;;;;;5076728;28;20228;-93
2022/01/14 08:15:28;;;;;;;2.13;1.93;;;5.40;99.90;;;;;;5064471;28;20284;-93
2022/01/14 08:18:01;;;;;;;2.40;1.53;;;5.40;99.90;;;;;;5067441;28;20235;-93
2022/01/14 08:20:32;;;;;;;3.10;1.50;;;5.50;99.90;;;;;;5059719;28;20262;-94
2022/01/14 08:23:03;;;;;;;1.70;1.60;;;5.50;99.90;;;;;;5056435;28;20212;-93
2022/01/14 08:25:38;;;;;;;3.07;1.60;;;5.60;99.90;;;;;;5060832;28;20219;-93
2022/01/14 08:28:10;;;;;;;3.20;1.20;;;5.60;99.90;;;;;;5062977;28;20232;-94
2022/01/14 08:30:40;;;;;;;1.50;1.40;;;5.70;99.90;;;;;;5059399;28;20250;-94
2022/01/14 08:33:12;;;;;;;1.97;1.40;;;5.70;99.90;;;;;;5059725;28;20224;-94
2022/01/14 08:35:43;;;;;;;2.67;1.70;;;5.70;99.90;;;;;;5062209;28;20231;-94
2022/01/14 08:38:16;;;;;;;1.60;1.50;;;5.60;99.90;;;;;;5069471;28;20571;-94
2022/01/14 08:40:48;;;;;;;3.33;1.20;;;5.60;99.90;;;;;;5070392;28;20211;-94
2022/01/14 08:43:25;;;;;;;2.07;1.70;;;5.60;99.90;;;;;;5071372;28;20207;-94
2022/01/14 08:45:58;;;;;;;1.70;1.60;;;5.60;99.90;;;;;;5061455;28;20528;-93
2022/01/14 08:48:30;;;;;;;1.77;1.67;;;5.50;99.90;;;;;;5060936;28;20327;-94
2022/01/14 08:51:02;;;;;;;1.57;1.30;;;5.40;99.90;;;;;;5061560;28;20208;-94
2022/01/14 08:53:33;;;;;;;1.57;1.20;;;5.40;99.90;;;;;;5061940;28;20239;-94
2022/01/14 08:56:04;;;;;;;2.30;1.13;;;5.30;99.90;;;;;;5061442;28;20212;-94
2022/01/14 08:58:37;;;;;;;1.50;1.20;;;5.30;99.90;;;;;;5061260;28;20246;-94
2022/01/14 09:01:09;;;;;;;2.10;1.50;;;5.20;99.90;;;;;;5059784;28;20251;-94
2022/01/14 09:03:40;;;;;;;1.70;1.60;;;5.10;99.90;;;;;;5060066;28;20632;-93
2022/01/14 09:06:11;;;;;;;3.17;1.47;;;5.10;99.90;;;;;;5061840;28;20204;-94
2022/01/14 09:08:42;;;;;;;1.53;1.40;;;5.10;99.90;;;;;;5053280;28;20733;-95
2022/01/14 09:11:13;;;;;;;2.87;1.37;;;5.10;99.90;;;;;;5042207;28;20311;-93
2022/01/14 09:13:47;;;;;;;1.33;1.23;;;5.00;99.90;;;;;;5043251;28;20200;-94
2022/01/14 09:16:21;;;;;;;1.77;1.50;;;5.00;99.90;;;;;;5051485;28;20199;-95
2022/01/14 09:18:52;;;;;;;1.90;1.67;;;4.90;99.90;;;;;;5063294;28;20204;-94
2022/01/14 09:21:22;;;;;;;2.00;1.40;;;4.90;99.90;;;;;;5075384;28;20220;-93
2022/01/14 09:24:03;;;;;;;2.33;1.73;;;4.80;99.90;;;;;;5070548;28;20239;-93
2022/01/14 09:26:35;;;;;;;2.20;1.37;;;4.80;99.90;;;;;;5068989;28;20272;-92
2022/01/14 09:29:09;;;;;;;1.73;1.60;;;4.80;99.90;;;;;;5065879;28;20232;-92
2022/01/14 09:31:41;;;;;;;6.00;1.87;;;4.80;99.90;;;;;;5060410;28;20203;-94
2022/01/14 09:34:14;;;;;;;5.73;1.60;;;4.80;99.90;;;;;;5059825;28;20303;-94
2022/01/14 09:36:46;;;;;;;1.83;1.63;;;4.80;99.90;;;;;;5062300;28;20208;-94
2022/01/14 09:39:18;;;;;;;1.87;1.53;;;4.80;99.90;;;;;;5064588;28;20230;-93
2022/01/14 09:41:49;;;;;;;2.17;1.50;;;4.80;99.90;;;;;;5061417;28;20204;-93
2022/01/14 09:44:22;;;;;;;2.30;1.70;;;4.70;99.90;;;;;;5058751;28;20547;-94
2022/01/14 09:46:54;;;;;;;2.07;1.60;;;4.70;99.90;;;;;;5057930;28;20670;-94
2022/01/14 09:49:25;;;;;;;2.53;1.70;;;4.70;99.90;;;;;;5058102;28;20314;-93
2022/01/14 09:51:56;;;;;;;2.00;1.80;;;4.70;99.90;;;;;;5057201;28;20235;-93
2022/01/14 09:54:27;;;;;;;3.13;1.60;;;4.60;99.90;;;;;;5059772;28;20204;-94
2022/01/14 09:56:58;;;;;;;2.70;2.20;;;4.70;99.90;;;;;;5056974;28;20211;-94
2022/01/14 09:59:31;;;;;;;1.90;1.60;;;4.60;99.90;;;;;;5059764;28;20662;-94
2022/01/14 10:02:02;;;;;;;2.53;2.03;;;4.60;99.90;;;;;;5061536;28;20232;-94
2022/01/14 10:04:35;;;;;;;2.60;2.30;;;4.60;99.90;;;;;;5060736;28;20223;-93
2022/01/14 10:07:06;;;;;;;3.20;1.80;;;4.60;99.90;;;;;;5055278;28;20192;-94
2022/01/14 10:09:40;;;;;;;2.17;1.70;;;4.60;99.90;;;;;;5037877;28;20280;-94
2022/01/14 10:12:13;;;;;;;2.73;2.00;;;4.70;99.90;;;;;;5037964;28;20257;-92
2022/01/14 10:14:57;;;;;;;2.30;2.10;;;4.70;99.90;;;;;;5038842;28;20213;-92
2022/01/14 10:17:36;;;;;;;3.03;2.10;;;4.70;99.90;;;;;;5037150;28;20201;-93
2022/01/14 10:20:09;;;;;;;3.07;1.90;;;4.80;99.90;;;;;;5038252;28;20205;-93
2022/01/14 10:22:44;;;;;;;3.27;2.23;;;4.90;99.90;;;;;;5043166;28;20296;-94
2022/01/14 10:25:17;;;;;;;3.00;2.00;;;5.00;99.90;;;;;;5053294;28;20209;-93
2022/01/14 10:27:52;;;;;;;3.03;2.03;;;5.00;99.90;;;;;;4988778;28;1888216;-93
2022/01/14 10:30:29;;;;;;;3.10;2.23;;;5.00;99.90;;;;;;5044285;28;20216;-94
2022/01/14 10:33:01;;;;;;;3.10;2.03;;;5.00;99.90;;;;;;5039175;28;20639;-93
2022/01/14 10:35:35;;;;;;;2.53;2.30;;;5.00;99.90;;;;;;5048863;28;20201;-93
2022/01/14 10:38:09;;;;;;;3.40;2.20;;;5.00;99.90;;;;;;5061386;28;20222;-94
2022/01/14 10:40:46;;;;;;;2.23;1.87;;;5.00;99.90;;;;;;5076971;28;20202;-94
2022/01/14 10:43:21;;;;;;;2.33;2.07;;;4.90;99.90;;;;;;5074607;28;20260;-94
2022/01/14 10:45:59;;;;;;;1.97;1.77;;;4.90;99.90;;;;;;5070041;28;20291;-94
2022/01/14 10:48:33;;;;;;;2.23;2.03;;;4.90;99.90;;;;;;5064136;28;20238;-94
2022/01/14 10:51:06;;;;;;;3.07;2.33;;;5.00;99.90;;;;;;5060816;28;20655;-93
2022/01/14 10:53:39;;;;;;;2.83;1.83;;;5.00;99.90;;;;;;5058508;28;20200;-93
2022/01/14 10:56:12;;;;;;;1.80;1.60;;;5.10;99.90;;;;;;5057624;28;20201;-93
2022/01/14 10:58:45;;;;;;;2.90;1.47;;;5.10;99.90;;;;;;5056986;28;20295;-94
2022/01/14 11:01:21;;;;;;;1.70;1.40;;;5.20;99.90;;;;;;5056713;28;20212;-94
2022/01/14 11:03:56;;;;;;;1.30;1.20;;;5.30;99.90;;;;;;5056547;28;20622;-94
2022/01/14 11:06:29;;;;;;;1.73;0.93;;;5.40;99.90;;;;;;5055831;28;20208;-93
2022/01/14 11:09:02;;;;;;;1.43;1.00;;;5.40;99.90;;;;;;5046447;28;20247;-93
2022/01/14 11:11:35;;;;;;;1.00;0.80;;;5.40;99.90;;;;;;5035849;28;20229;-93
2022/01/14 11:14:08;;;;;;;3.00;1.10;;;5.50;99.90;;;;;;5036261;28;20263;-93
2022/01/14 11:16:41;;;;;;;1.87;0.80;;;5.60;99.90;;;;;;5035587;28;20258;-93
2022/01/14 11:19:14;;;;;;;1.40;1.00;;;5.60;99.90;;;;;;5036201;28;20228;-93
2022/01/14 11:24:37;;;;;;;0.80;0.67;;;5.70;99.90;;;;;;5056629;28;20659;-93
2022/01/14 11:27:10;;;;;;;0.80;0.80;;;5.70;99.90;;;;;;5054831;28;20294;-93
2022/01/14 11:29:44;;;;;;;0.60;0.60;;;5.70;99.90;;;;;;5057517;28;20345;-93
2022/01/14 11:32:18;;;;;;;1.03;0.70;;;5.80;99.90;;;;;;5066370;28;20227;-94
2022/01/14 11:34:50;;;;;;;1.20;0.60;;;5.80;99.90;;;;;;5057571;28;20204;-93
2022/01/14 11:37:34;;;;;;;0.83;0.80;;;5.70;99.90;;;;;;5058077;28;20208;-93
2022/01/14 11:40:08;;;;;;;0.47;0.47;;;5.60;99.90;;;;;;5054597;28;20250;-94
2022/01/14 11:42:45;;;;;;;0.87;0.70;;;5.60;99.90;;;;;;5055503;28;20269;-94
2022/01/14 11:45:17;;;;;;;0.60;0.60;;;5.50;99.90;;;;;;5056288;28;20242;-93
2022/01/14 11:48:03;;;;;;;1.27;0.70;;;5.40;99.90;;;;;;5057617;28;20200;-95
2022/01/14 11:50:52;;;;;;;0.80;0.70;;;5.30;99.90;;;;;;5058199;28;20581;-94
2022/01/14 11:53:44;;;;;;;1.20;0.80;;;5.30;99.90;;;;;;5055529;28;20240;-94
2022/01/14 11:56:47;;;;;;;0.70;0.70;;;5.20;99.90;;;;;;5057444;28;20276;-94
2022/01/14 11:59:47;;;;;;;1.30;0.90;;;5.20;99.90;;;;;;5037484;28;20223;-94
2022/01/14 12:02:51;;;;;;;2.47;0.90;;;5.10;99.90;;;;;;5035550;28;20265;-93
2022/01/14 12:05:27;;;;;;;12.50;2.10;;;5.10;99.90;;;;;;4974565;28;20302;-93
2022/01/14 12:08:22;;;;;;;275.93;12.83;;;5.00;99.90;;;;;;4978080;28;20249;-94
2022/01/14 12:11:20;;;;;;;295.90;13.37;;;5.00;99.90;;;;;;5041746;28;20231;-92
2022/01/14 12:14:12;;;;;;;368.37;14.93;;;5.00;99.90;;;;;;5055955;28;20242;-94
2022/01/14 12:17:00;;;;;;;396.57;16.57;;;5.00;99.90;;;;;;5059719;28;20258;-94
2022/01/14 12:19:31;;;;;;;176.87;9.03;;;5.00;99.90;;;;;;5056576;28;20204;-92
2022/01/14 12:22:11;;;;;;;328.60;13.20;;;4.90;99.90;;;;;;5055564;28;20292;-92
2022/01/14 12:24:54;;;;;;;306.97;12.67;;;5.00;99.90;;;;;;5055757;28;20203;-93
2022/01/14 12:27:33;;;;;;;183.90;9.70;;;4.90;99.90;;;;;;5054194;28;20242;-93
2022/01/14 12:30:08;;;;;;;257.60;9.13;;;4.90;99.90;;;;;;5055697;28;20713;-93
2022/01/14 12:32:42;;;;;;;101.93;4.93;;;4.80;99.90;;;;;;5055743;28;20653;-93
2022/01/14 12:35:16;;;;;;;50.47;3.53;;;4.80;99.90;;;;;;5056168;28;20250;-93
2022/01/14 12:37:52;;;;;;;8.93;2.03;;;4.70;99.90;;;;;;5055349;28;20203;-93
2022/01/14 12:40:25;;;;;;;1.87;1.67;;;4.70;99.90;;;;;;5056490;28;20220;-93
2022/01/14 12:42:58;;;;;;;1.70;1.60;;;4.60;99.90;;;;;;5056194;28;20634;-94
2022/01/14 12:45:41;;;;;;;2.10;1.83;;;4.50;99.90;;;;;;5056338;28;20287;-93
2022/01/14 12:48:29;;;;;;;3.00;1.80;;;4.50;99.90;;;;;;5074330;28;20200;-92
2022/01/14 12:51:12;;;;;;;1.90;1.70;;;4.40;99.90;;;;;;5073505;28;20193;-92
2022/01/14 12:54:09;;;;;;;2.47;1.90;;;4.30;99.90;;;;;;5065028;28;20211;-93
2022/01/14 12:56:41;;;;;;;1.80;1.60;;;4.30;99.90;;;;;;5054973;28;20208;-93
2022/01/14 12:59:15;;;;;;;15.27;1.90;;;4.30;99.90;;;;;;5056232;28;20619;-93
2022/01/14 13:01:50;;;;;;;3.23;1.77;;;4.30;99.90;;;;;;5055896;28;20263;-94
2022/01/14 13:04:23;;;;;;;47.37;3.93;;;4.30;99.90;;;;;;5055268;28;20204;-94
2022/01/14 13:06:55;;;;;;;1.93;1.43;;;4.20;99.90;;;;;;5054097;28;20636;-93
2022/01/14 13:09:30;;;;;;;1.77;1.40;;;4.30;99.90;;;;;;5038964;28;20781;-93
2022/01/14 13:12:03;;;;;;;1.87;1.40;;;4.30;99.90;;;;;;5036888;28;20626;-93
2022/01/14 13:14:39;;;;;;;2.77;1.30;;;4.30;99.90;;;;;;5166750;23;20717;-94
2022/01/14 13:17:14;;;;;;;1.40;1.30;;;4.30;99.90;;;;;;5058492;28;20315;-93
2022/01/14 13:19:46;;;;;;;1.50;1.40;;;4.30;99.90;;;;;;5059707;28;20212;-93
2022/01/14 13:22:19;;;;;;;1.30;1.10;;;4.40;99.90;;;;;;5061007;28;20214;-92
2022/01/14 13:24:56;;;;;;;1.53;1.33;;;4.40;99.90;;;;;;5066286;28;20209;-93
2022/01/14 13:27:29;;;;;;;1.43;1.27;;;4.40;99.90;;;;;;5058229;28;20226;-93
2022/01/14 13:30:02;;;;;;;1.40;1.30;;;4.40;99.90;;;;;;5058403;28;20236;-93
2022/01/14 13:32:35;;;;;;;1.97;1.60;;;4.50;99.90;;;;;;5058701;28;20212;-94
2022/01/14 13:35:11;;;;;;;1.33;1.23;;;4.50;99.90;;;;;;5058413;28;20573;-93
2022/01/14 13:37:45;;;;;;;1.10;1.00;;;4.60;99.90;;;;;;5057775;28;20196;-93
2022/01/14 13:40:21;;;;;;;2.70;0.90;;;4.60;99.90;;;;;;5058098;28;20236;-93
2022/01/14 13:43:06;;;;;;;1.17;1.07;;;4.60;99.90;;;;;;5057468;28;20602;-93
2022/01/14 13:45:40;;;;;;;3.30;1.33;;;4.70;99.90;;;;;;5057876;28;20704;-93
2022/01/14 13:48:18;;;;;;;1.37;1.00;;;4.70;99.90;;;;;;5056280;28;20688;-93
2022/01/14 13:50:50;;;;;;;1.20;0.90;;;4.80;99.90;;;;;;5058040;28;20223;-93
2022/01/14 13:53:28;;;;;;;1.10;0.93;;;4.80;99.90;;;;;;5058825;28;20655;-94
2022/01/14 13:56:09;;;;;;;1.80;0.93;;;4.80;99.90;;;;;;5049776;28;20209;-93
2022/01/14 13:58:48;;;;;;;19.97;1.83;;;4.90;99.90;;;;;;5037795;28;20209;-93
2022/01/14 14:01:19;;;;;;;0.90;0.90;;;4.90;99.90;;;;;;5038012;28;20207;-93
2022/01/14 14:03:56;;;;;;;1.10;0.90;;;4.90;99.90;;;;;;5037459;28;20228;-94
2022/01/14 14:06:36;;;;;;;2.07;1.10;;;4.90;99.90;;;;;;5039847;28;20205;-94
2022/01/14 14:09:12;;;;;;;1.83;1.10;;;5.00;99.90;;;;;;5053108;28;20581;-93
2022/01/14 14:12:10;;;;;;;1.40;1.30;;;5.00;99.90;;;;;;5057480;28;20304;-93
2022/01/14 14:18:05;;;;;;;1.43;1.20;;;5.10;99.90;;;;;;5044751;28;20235;-93